KGNV 170553Z AUTO 00000KT 10SM CLR 04/04 A3031 RMK AO2 SLP264 T00440044 10111 20044 58013